Аэропорт: Стригино. Нижний Новгород

ICAO: UWGG

METAR:
2019-11-21 01:30:00
UWGG 210130Z 17002MPS CAVOK M12/M14 Q1051 R18L/090070 NOSIG
METAR:
2019-11-20 22:50:00
TAF UWGG 202250Z 2100/2124 13003MPS 9999 SCT016 TXM07/2112Z TNM13/2103Z